sensor_id;sensor_type;location;lat;lon;timestamp;temperature;humidity
16247;DHT22;8231;50.866;7.944;2023-09-07T00:00:52;13.50;99.90
16247;DHT22;8231;50.866;7.944;2023-09-07T00:03:20;13.40;99.90
16247;DHT22;8231;50.866;7.944;2023-09-07T00:05:50;13.60;99.90
16247;DHT22;8231;50.866;7.944;2023-09-07T00:08:18;13.40;99.90
16247;DHT22;8231;50.866;7.944;2023-09-07T00:10:46;13.30;99.90
16247;DHT22;8231;50.866;7.944;2023-09-07T00:13:14;13.00;99.90
16247;DHT22;8231;50.866;7.944;2023-09-07T00:15:43;13.40;99.90
16247;DHT22;8231;50.866;7.944;2023-09-07T00:18:12;13.30;99.90
16247;DHT22;8231;50.866;7.944;2023-09-07T00:20:43;13.20;99.90
16247;DHT22;8231;50.866;7.944;2023-09-07T00:23:12;13.20;99.90
16247;DHT22;8231;50.866;7.944;2023-09-07T00:25:40;13.20;99.90
16247;DHT22;8231;50.866;7.944;2023-09-07T00:28:08;13.10;99.90
16247;DHT22;8231;50.866;7.944;2023-09-07T00:30:36;13.20;99.90
16247;DHT22;8231;50.866;7.944;2023-09-07T00:33:05;13.10;99.90
16247;DHT22;8231;50.866;7.944;2023-09-07T00:35:35;13.20;99.90
16247;DHT22;8231;50.866;7.944;2023-09-07T00:38:03;13.00;99.90
16247;DHT22;8231;50.866;7.944;2023-09-07T00:40:32;13.00;99.90
16247;DHT22;8231;50.866;7.944;2023-09-07T00:43:00;13.00;99.90
16247;DHT22;8231;50.866;7.944;2023-09-07T00:45:29;12.90;99.90
16247;DHT22;8231;50.866;7.944;2023-09-07T00:47:57;12.90;99.90
16247;DHT22;8231;50.866;7.944;2023-09-07T00:50:25;12.90;99.90
16247;DHT22;8231;50.866;7.944;2023-09-07T00:52:55;12.90;99.90
16247;DHT22;8231;50.866;7.944;2023-09-07T00:55:23;12.90;99.90
16247;DHT22;8231;50.866;7.944;2023-09-07T00:57:53;12.80;99.90
16247;DHT22;8231;50.866;7.944;2023-09-07T01:00:22;12.80;99.90
16247;DHT22;8231;50.866;7.944;2023-09-07T01:02:50;12.70;99.90
16247;DHT22;8231;50.866;7.944;2023-09-07T01:05:21;12.70;99.90
16247;DHT22;8231;50.866;7.944;2023-09-07T01:07:57;12.70;99.90
16247;DHT22;8231;50.866;7.944;2023-09-07T01:10:26;12.70;99.90
16247;DHT22;8231;50.866;7.944;2023-09-07T01:12:54;12.70;99.90
16247;DHT22;8231;50.866;7.944;2023-09-07T01:15:23;12.60;99.90
16247;DHT22;8231;50.866;7.944;2023-09-07T01:17:51;12.60;99.90
16247;DHT22;8231;50.866;7.944;2023-09-07T01:20:20;12.60;99.90
16247;DHT22;8231;50.866;7.944;2023-09-07T01:22:51;12.60;99.90
16247;DHT22;8231;50.866;7.944;2023-09-07T01:25:20;12.60;99.90
16247;DHT22;8231;50.866;7.944;2023-09-07T01:27:49;12.50;99.90
16247;DHT22;8231;50.866;7.944;2023-09-07T01:30:18;12.50;99.90
16247;DHT22;8231;50.866;7.944;2023-09-07T01:32:46;12.50;99.90
16247;DHT22;8231;50.866;7.944;2023-09-07T01:35:16;12.40;99.90
16247;DHT22;8231;50.866;7.944;2023-09-07T01:37:48;12.40;99.90
16247;DHT22;8231;50.866;7.944;2023-09-07T01:40:18;12.40;99.90
16247;DHT22;8231;50.866;7.944;2023-09-07T01:42:46;12.40;99.90
16247;DHT22;8231;50.866;7.944;2023-09-07T01:45:14;12.30;99.90
16247;DHT22;8231;50.866;7.944;2023-09-07T01:47:42;12.30;99.90
16247;DHT22;8231;50.866;7.944;2023-09-07T01:50:11;12.30;99.90
16247;DHT22;8231;50.866;7.944;2023-09-07T01:52:41;12.30;99.90
16247;DHT22;8231;50.866;7.944;2023-09-07T01:55:09;12.20;99.90
16247;DHT22;8231;50.866;7.944;2023-09-07T01:57:39;12.20;99.90
16247;DHT22;8231;50.866;7.944;2023-09-07T02:00:07;12.20;99.90
16247;DHT22;8231;50.866;7.944;2023-09-07T02:02:39;12.10;99.90
16247;DHT22;8231;50.866;7.944;2023-09-07T02:05:07;12.10;99.90
16247;DHT22;8231;50.866;7.944;2023-09-07T02:07:37;12.10;99.90
16247;DHT22;8231;50.866;7.944;2023-09-07T02:10:06;12.10;99.90
16247;DHT22;8231;50.866;7.944;2023-09-07T02:12:34;12.10;99.90
16247;DHT22;8231;50.866;7.944;2023-09-07T02:15:05;12.10;99.90
16247;DHT22;8231;50.866;7.944;2023-09-07T02:17:33;12.00;99.90
16247;DHT22;8231;50.866;7.944;2023-09-07T02:20:03;12.00;99.90
16247;DHT22;8231;50.866;7.944;2023-09-07T02:22:37;12.00;99.90
16247;DHT22;8231;50.866;7.944;2023-09-07T02:25:06;12.00;99.90
16247;DHT22;8231;50.866;7.944;2023-09-07T02:27:35;11.90;99.90
16247;DHT22;8231;50.866;7.944;2023-09-07T02:30:07;11.90;99.90
16247;DHT22;8231;50.866;7.944;2023-09-07T02:32:36;11.90;99.90
16247;DHT22;8231;50.866;7.944;2023-09-07T02:35:05;12.00;99.90
16247;DHT22;8231;50.866;7.944;2023-09-07T02:37:35;11.90;99.90
16247;DHT22;8231;50.866;7.944;2023-09-07T02:40:04;11.80;99.90
16247;DHT22;8231;50.866;7.944;2023-09-07T02:42:37;11.80;99.90
16247;DHT22;8231;50.866;7.944;2023-09-07T02:45:09;11.80;99.90
16247;DHT22;8231;50.866;7.944;2023-09-07T02:47:38;11.80;99.90
16247;DHT22;8231;50.866;7.944;2023-09-07T02:50:07;11.70;99.90
16247;DHT22;8231;50.866;7.944;2023-09-07T02:52:35;11.70;99.90
16247;DHT22;8231;50.866;7.944;2023-09-07T02:55:04;11.70;99.90
16247;DHT22;8231;50.866;7.944;2023-09-07T02:57:35;11.70;99.90
16247;DHT22;8231;50.866;7.944;2023-09-07T03:00:06;11.70;99.90
16247;DHT22;8231;50.866;7.944;2023-09-07T03:02:37;11.60;99.90
16247;DHT22;8231;50.866;7.944;2023-09-07T03:05:06;11.60;99.90
16247;DHT22;8231;50.866;7.944;2023-09-07T03:07:35;11.60;99.90
16247;DHT22;8231;50.866;7.944;2023-09-07T03:10:03;11.60;99.90
16247;DHT22;8231;50.866;7.944;2023-09-07T03:12:32;11.50;99.90
16247;DHT22;8231;50.866;7.944;2023-09-07T03:15:00;11.50;99.90
16247;DHT22;8231;50.866;7.944;2023-09-07T03:17:31;11.50;99.90
16247;DHT22;8231;50.866;7.944;2023-09-07T03:20:01;11.50;99.90
16247;DHT22;8231;50.866;7.944;2023-09-07T03:22:43;11.50;99.90
16247;DHT22;8231;50.866;7.944;2023-09-07T03:25:13;11.50;99.90
16247;DHT22;8231;50.866;7.944;2023-09-07T03:27:42;11.50;99.90
16247;DHT22;8231;50.866;7.944;2023-09-07T03:30:12;11.40;99.90
16247;DHT22;8231;50.866;7.944;2023-09-07T03:32:41;11.40;99.90
16247;DHT22;8231;50.866;7.944;2023-09-07T03:35:09;11.40;99.90
16247;DHT22;8231;50.866;7.944;2023-09-07T03:37:38;11.60;99.90
16247;DHT22;8231;50.866;7.944;2023-09-07T03:40:07;11.50;99.90
16247;DHT22;8231;50.866;7.944;2023-09-07T03:42:38;11.30;99.90
16247;DHT22;8231;50.866;7.944;2023-09-07T03:45:09;11.50;99.90
16247;DHT22;8231;50.866;7.944;2023-09-07T03:47:38;11.30;99.90
16247;DHT22;8231;50.866;7.944;2023-09-07T03:50:09;11.20;99.90
16247;DHT22;8231;50.866;7.944;2023-09-07T03:52:38;11.30;99.90
16247;DHT22;8231;50.866;7.944;2023-09-07T03:55:07;11.20;99.90
16247;DHT22;8231;50.866;7.944;2023-09-07T03:57:37;11.20;99.90
16247;DHT22;8231;50.866;7.944;2023-09-07T04:00:06;11.20;99.90
16247;DHT22;8231;50.866;7.944;2023-09-07T04:02:46;11.20;99.90
16247;DHT22;8231;50.866;7.944;2023-09-07T04:05:16;11.10;99.90
16247;DHT22;8231;50.866;7.944;2023-09-07T04:07:45;11.10;99.90
16247;DHT22;8231;50.866;7.944;2023-09-07T04:10:13;11.20;99.90
16247;DHT22;8231;50.866;7.944;2023-09-07T04:12:42;11.10;99.90
16247;DHT22;8231;50.866;7.944;2023-09-07T04:15:10;11.00;99.90
16247;DHT22;8231;50.866;7.944;2023-09-07T04:17:39;11.00;99.90
16247;DHT22;8231;50.866;7.944;2023-09-07T04:20:09;11.00;99.90
16247;DHT22;8231;50.866;7.944;2023-09-07T04:22:40;11.00;99.90
16247;DHT22;8231;50.866;7.944;2023-09-07T04:25:08;11.10;99.90
16247;DHT22;8231;50.866;7.944;2023-09-07T04:27:37;11.30;99.90
16247;DHT22;8231;50.866;7.944;2023-09-07T04:30:07;10.90;99.90
16247;DHT22;8231;50.866;7.944;2023-09-07T04:32:37;10.90;99.90
16247;DHT22;8231;50.866;7.944;2023-09-07T04:35:06;10.90;99.90
16247;DHT22;8231;50.866;7.944;2023-09-07T04:37:35;10.90;99.90
16247;DHT22;8231;50.866;7.944;2023-09-07T04:40:06;10.90;99.90
16247;DHT22;8231;50.866;7.944;2023-09-07T04:42:34;10.50;99.90
16247;DHT22;8231;50.866;7.944;2023-09-07T04:45:03;10.80;99.90
16247;DHT22;8231;50.866;7.944;2023-09-07T04:47:32;10.90;99.90
16247;DHT22;8231;50.866;7.944;2023-09-07T04:50:00;10.80;99.90
16247;DHT22;8231;50.866;7.944;2023-09-07T04:52:29;10.80;99.90
16247;DHT22;8231;50.866;7.944;2023-09-07T04:54:57;10.80;99.90
16247;DHT22;8231;50.866;7.944;2023-09-07T04:57:27;10.80;99.90
16247;DHT22;8231;50.866;7.944;2023-09-07T04:59:55;11.00;99.90
16247;DHT22;8231;50.866;7.944;2023-09-07T05:02:23;11.00;99.90
16247;DHT22;8231;50.866;7.944;2023-09-07T05:04:52;10.90;99.90
16247;DHT22;8231;50.866;7.944;2023-09-07T05:07:20;10.80;99.90
16247;DHT22;8231;50.866;7.944;2023-09-07T05:09:49;10.80;99.90
16247;DHT22;8231;50.866;7.944;2023-09-07T05:12:17;11.00;99.90
16247;DHT22;8231;50.866;7.944;2023-09-07T05:14:48;10.80;99.90
16247;DHT22;8231;50.866;7.944;2023-09-07T05:17:16;10.80;99.90
16247;DHT22;8231;50.866;7.944;2023-09-07T05:19:44;10.80;99.90
16247;DHT22;8231;50.866;7.944;2023-09-07T05:22:12;10.90;99.90
16247;DHT22;8231;50.866;7.944;2023-09-07T05:24:41;10.80;99.90
16247;DHT22;8231;50.866;7.944;2023-09-07T05:27:12;10.80;99.90
16247;DHT22;8231;50.866;7.944;2023-09-07T05:29:40;10.80;99.90
16247;DHT22;8231;50.866;7.944;2023-09-07T05:32:10;10.80;99.90
16247;DHT22;8231;50.866;7.944;2023-09-07T05:34:39;10.90;99.90
16247;DHT22;8231;50.866;7.944;2023-09-07T05:37:07;11.00;99.90
16247;DHT22;8231;50.866;7.944;2023-09-07T05:39:36;11.00;99.90
16247;DHT22;8231;50.866;7.944;2023-09-07T05:42:04;11.10;99.90
16247;DHT22;8231;50.866;7.944;2023-09-07T05:44:33;11.20;99.90
16247;DHT22;8231;50.866;7.944;2023-09-07T05:47:02;11.20;99.90
16247;DHT22;8231;50.866;7.944;2023-09-07T05:49:32;11.30;99.90
16247;DHT22;8231;50.866;7.944;2023-09-07T05:52:00;11.40;99.90
16247;DHT22;8231;50.866;7.944;2023-09-07T05:54:28;11.50;99.90
16247;DHT22;8231;50.866;7.944;2023-09-07T05:56:57;11.60;99.90
16247;DHT22;8231;50.866;7.944;2023-09-07T05:59:25;11.70;99.90
16247;DHT22;8231;50.866;7.944;2023-09-07T06:01:53;11.80;99.90
16247;DHT22;8231;50.866;7.944;2023-09-07T06:04:21;11.80;99.90
16247;DHT22;8231;50.866;7.944;2023-09-07T06:06:51;11.90;99.90
16247;DHT22;8231;50.866;7.944;2023-09-07T06:09:19;11.90;99.90
16247;DHT22;8231;50.866;7.944;2023-09-07T06:11:47;12.00;99.90
16247;DHT22;8231;50.866;7.944;2023-09-07T06:14:17;12.20;99.90
16247;DHT22;8231;50.866;7.944;2023-09-07T06:16:45;12.50;99.90
16247;DHT22;8231;50.866;7.944;2023-09-07T06:19:13;13.20;99.90
16247;DHT22;8231;50.866;7.944;2023-09-07T06:21:41;14.20;99.90
16247;DHT22;8231;50.866;7.944;2023-09-07T06:24:11;15.20;99.90
16247;DHT22;8231;50.866;7.944;2023-09-07T06:26:39;16.10;99.90
16247;DHT22;8231;50.866;7.944;2023-09-07T06:29:07;17.00;99.90
16247;DHT22;8231;50.866;7.944;2023-09-07T06:31:36;17.70;99.90
16247;DHT22;8231;50.866;7.944;2023-09-07T06:34:05;18.40;99.90
16247;DHT22;8231;50.866;7.944;2023-09-07T06:36:33;19.20;99.90
16247;DHT22;8231;50.866;7.944;2023-09-07T06:39:17;19.60;99.90
16247;DHT22;8231;50.866;7.944;2023-09-07T06:41:46;20.40;99.90
16247;DHT22;8231;50.866;7.944;2023-09-07T06:44:17;20.80;99.90
16247;DHT22;8231;50.866;7.944;2023-09-07T06:46:46;21.30;99.90
16247;DHT22;8231;50.866;7.944;2023-09-07T06:49:17;21.80;99.90
16247;DHT22;8231;50.866;7.944;2023-09-07T06:51:46;22.30;99.90
16247;DHT22;8231;50.866;7.944;2023-09-07T06:54:16;22.60;99.90
16247;DHT22;8231;50.866;7.944;2023-09-07T06:56:46;23.00;99.90
16247;DHT22;8231;50.866;7.944;2023-09-07T06:59:14;23.30;99.90
16247;DHT22;8231;50.866;7.944;2023-09-07T07:01:42;23.60;99.90
16247;DHT22;8231;50.866;7.944;2023-09-07T07:04:11;23.90;99.90
16247;DHT22;8231;50.866;7.944;2023-09-07T07:06:39;24.40;99.90
16247;DHT22;8231;50.866;7.944;2023-09-07T07:09:07;24.80;99.90
16247;DHT22;8231;50.866;7.944;2023-09-07T07:11:39;25.10;99.90
16247;DHT22;8231;50.866;7.944;2023-09-07T07:14:07;25.50;99.90
16247;DHT22;8231;50.866;7.944;2023-09-07T07:16:36;25.90;99.90
16247;DHT22;8231;50.866;7.944;2023-09-07T07:19:04;26.10;99.90
16247;DHT22;8231;50.866;7.944;2023-09-07T07:21:32;26.40;99.90
16247;DHT22;8231;50.866;7.944;2023-09-07T07:24:03;26.70;99.90
16247;DHT22;8231;50.866;7.944;2023-09-07T07:26:33;26.90;99.90
16247;DHT22;8231;50.866;7.944;2023-09-07T07:29:03;27.30;99.90
16247;DHT22;8231;50.866;7.944;2023-09-07T07:31:32;27.70;99.90
16247;DHT22;8231;50.866;7.944;2023-09-07T07:34:00;27.90;99.90
16247;DHT22;8231;50.866;7.944;2023-09-07T07:36:29;28.20;99.90
16247;DHT22;8231;50.866;7.944;2023-09-07T07:39:00;28.50;99.90
16247;DHT22;8231;50.866;7.944;2023-09-07T07:41:29;28.90;99.90
16247;DHT22;8231;50.866;7.944;2023-09-07T07:43:57;29.20;99.90
16247;DHT22;8231;50.866;7.944;2023-09-07T07:46:27;29.40;99.90
16247;DHT22;8231;50.866;7.944;2023-09-07T07:48:55;29.50;99.90
16247;DHT22;8231;50.866;7.944;2023-09-07T07:51:23;29.70;99.10
16247;DHT22;8231;50.866;7.944;2023-09-07T07:53:54;30.00;98.60
16247;DHT22;8231;50.866;7.944;2023-09-07T07:56:24;30.20;94.90
16247;DHT22;8231;50.866;7.944;2023-09-07T07:58:54;30.50;94.70
16247;DHT22;8231;50.866;7.944;2023-09-07T08:01:22;30.60;93.60
16247;DHT22;8231;50.866;7.944;2023-09-07T08:03:55;30.80;93.50
16247;DHT22;8231;50.866;7.944;2023-09-07T08:06:24;31.00;92.90
16247;DHT22;8231;50.866;7.944;2023-09-07T08:08:53;31.10;92.10
16247;DHT22;8231;50.866;7.944;2023-09-07T08:11:21;31.20;90.60
16247;DHT22;8231;50.866;7.944;2023-09-07T08:13:51;31.30;91.20
16247;DHT22;8231;50.866;7.944;2023-09-07T08:16:19;31.20;92.20
16247;DHT22;8231;50.866;7.944;2023-09-07T08:18:48;31.50;90.90
16247;DHT22;8231;50.866;7.944;2023-09-07T08:21:18;31.20;89.00
16247;DHT22;8231;50.866;7.944;2023-09-07T08:23:46;31.20;89.40
16247;DHT22;8231;50.866;7.944;2023-09-07T08:26:16;31.50;91.30
16247;DHT22;8231;50.866;7.944;2023-09-07T08:28:45;31.50;89.40
16247;DHT22;8231;50.866;7.944;2023-09-07T08:31:13;31.50;87.20
16247;DHT22;8231;50.866;7.944;2023-09-07T08:33:48;31.70;87.70
16247;DHT22;8231;50.866;7.944;2023-09-07T08:36:19;31.70;85.00
16247;DHT22;8231;50.866;7.944;2023-09-07T08:38:50;31.40;86.30
16247;DHT22;8231;50.866;7.944;2023-09-07T08:41:21;31.20;84.00
16247;DHT22;8231;50.866;7.944;2023-09-07T08:43:49;31.00;86.00
16247;DHT22;8231;50.866;7.944;2023-09-07T08:46:20;31.10;86.40
16247;DHT22;8231;50.866;7.944;2023-09-07T08:48:51;31.00;85.40
16247;DHT22;8231;50.866;7.944;2023-09-07T08:51:21;30.80;85.30
16247;DHT22;8231;50.866;7.944;2023-09-07T08:53:49;30.50;84.20
16247;DHT22;8231;50.866;7.944;2023-09-07T08:56:18;30.30;85.90
16247;DHT22;8231;50.866;7.944;2023-09-07T08:58:48;30.30;85.90
16247;DHT22;8231;50.866;7.944;2023-09-07T09:01:17;30.30;84.20
16247;DHT22;8231;50.866;7.944;2023-09-07T09:03:48;30.30;85.80
16247;DHT22;8231;50.866;7.944;2023-09-07T09:06:19;30.30;84.50
16247;DHT22;8231;50.866;7.944;2023-09-07T09:08:50;30.30;84.90
16247;DHT22;8231;50.866;7.944;2023-09-07T09:11:20;30.30;84.90
16247;DHT22;8231;50.866;7.944;2023-09-07T09:13:48;30.00;83.70
16247;DHT22;8231;50.866;7.944;2023-09-07T09:16:17;29.70;84.00
16247;DHT22;8231;50.866;7.944;2023-09-07T09:18:49;29.30;85.20
16247;DHT22;8231;50.866;7.944;2023-09-07T09:21:21;29.40;86.50
16247;DHT22;8231;50.866;7.944;2023-09-07T09:23:52;29.50;86.40
16247;DHT22;8231;50.866;7.944;2023-09-07T09:26:20;29.60;86.80
16247;DHT22;8231;50.866;7.944;2023-09-07T09:28:55;29.40;86.50
16247;DHT22;8231;50.866;7.944;2023-09-07T09:31:24;29.20;85.60
16247;DHT22;8231;50.866;7.944;2023-09-07T09:33:52;29.30;87.30
16247;DHT22;8231;50.866;7.944;2023-09-07T09:36:22;29.50;88.10
16247;DHT22;8231;50.866;7.944;2023-09-07T09:38:51;29.20;85.50
16247;DHT22;8231;50.866;7.944;2023-09-07T09:41:21;28.90;87.10
16247;DHT22;8231;50.866;7.944;2023-09-07T09:43:50;28.70;87.50
16247;DHT22;8231;50.866;7.944;2023-09-07T09:46:21;28.70;88.00
16247;DHT22;8231;50.866;7.944;2023-09-07T09:48:50;28.70;88.20
16247;DHT22;8231;50.866;7.944;2023-09-07T09:51:19;28.70;86.70
16247;DHT22;8231;50.866;7.944;2023-09-07T09:53:50;28.80;87.90
16247;DHT22;8231;50.866;7.944;2023-09-07T09:56:19;29.00;88.70
16247;DHT22;8231;50.866;7.944;2023-09-07T09:58:47;29.00;86.70
16247;DHT22;8231;50.866;7.944;2023-09-07T10:01:15;28.90;86.20
16247;DHT22;8231;50.866;7.944;2023-09-07T10:03:46;28.80;86.80
16247;DHT22;8231;50.866;7.944;2023-09-07T10:06:19;28.70;85.60
16247;DHT22;8231;50.866;7.944;2023-09-07T10:09:02;28.60;85.20
16247;DHT22;8231;50.866;7.944;2023-09-07T10:11:31;28.80;88.20
16247;DHT22;8231;50.866;7.944;2023-09-07T10:14:01;28.80;86.60
16247;DHT22;8231;50.866;7.944;2023-09-07T10:16:41;28.80;87.70
16247;DHT22;8231;50.866;7.944;2023-09-07T10:19:17;29.00;86.80
16247;DHT22;8231;50.866;7.944;2023-09-07T10:21:46;29.10;87.00
16247;DHT22;8231;50.866;7.944;2023-09-07T10:24:26;29.20;87.50
16247;DHT22;8231;50.866;7.944;2023-09-07T10:26:59;29.30;88.40
16247;DHT22;8231;50.866;7.944;2023-09-07T10:29:27;29.30;86.10
16247;DHT22;8231;50.866;7.944;2023-09-07T10:31:56;29.30;87.70
16247;DHT22;8231;50.866;7.944;2023-09-07T10:34:36;29.60;89.00
16247;DHT22;8231;50.866;7.944;2023-09-07T10:37:06;29.60;85.60
16247;DHT22;8231;50.866;7.944;2023-09-07T10:39:39;29.40;86.50
16247;DHT22;8231;50.866;7.944;2023-09-07T10:42:20;29.30;86.20
16247;DHT22;8231;50.866;7.944;2023-09-07T10:44:48;29.20;89.20
16247;DHT22;8231;50.866;7.944;2023-09-07T10:47:16;29.30;87.00
16247;DHT22;8231;50.866;7.944;2023-09-07T10:49:45;29.30;87.50
16247;DHT22;8231;50.866;7.944;2023-09-07T10:52:13;29.30;85.40
16247;DHT22;8231;50.866;7.944;2023-09-07T10:54:43;29.40;86.00
16247;DHT22;8231;50.866;7.944;2023-09-07T10:57:12;29.50;85.90
16247;DHT22;8231;50.866;7.944;2023-09-07T10:59:44;29.60;85.60
16247;DHT22;8231;50.866;7.944;2023-09-07T11:02:12;29.50;84.40
16247;DHT22;8231;50.866;7.944;2023-09-07T11:04:43;29.60;86.20
16247;DHT22;8231;50.866;7.944;2023-09-07T11:07:12;30.00;85.60
16247;DHT22;8231;50.866;7.944;2023-09-07T11:09:41;30.20;86.10
16247;DHT22;8231;50.866;7.944;2023-09-07T11:12:12;30.30;81.80
16247;DHT22;8231;50.866;7.944;2023-09-07T11:14:40;30.40;82.10
16247;DHT22;8231;50.866;7.944;2023-09-07T11:17:09;30.40;81.60
16247;DHT22;8231;50.866;7.944;2023-09-07T11:19:37;30.40;81.60
16247;DHT22;8231;50.866;7.944;2023-09-07T11:22:05;30.50;80.70
16247;DHT22;8231;50.866;7.944;2023-09-07T11:24:37;30.50;80.30
16247;DHT22;8231;50.866;7.944;2023-09-07T11:27:05;30.50;78.90
16247;DHT22;8231;50.866;7.944;2023-09-07T11:29:34;30.60;79.90
16247;DHT22;8231;50.866;7.944;2023-09-07T11:32:06;30.60;77.30
16247;DHT22;8231;50.866;7.944;2023-09-07T11:34:34;30.70;78.30
16247;DHT22;8231;50.866;7.944;2023-09-07T11:37:04;30.90;76.60
16247;DHT22;8231;50.866;7.944;2023-09-07T11:39:32;30.80;76.80
16247;DHT22;8231;50.866;7.944;2023-09-07T11:42:00;31.00;76.50
16247;DHT22;8231;50.866;7.944;2023-09-07T11:44:28;31.20;74.70
16247;DHT22;8231;50.866;7.944;2023-09-07T11:46:57;31.40;75.80
16247;DHT22;8231;50.866;7.944;2023-09-07T11:49:26;31.70;73.40
16247;DHT22;8231;50.866;7.944;2023-09-07T11:51:54;32.20;73.40
16247;DHT22;8231;50.866;7.944;2023-09-07T11:54:22;32.60;72.80
16247;DHT22;8231;50.866;7.944;2023-09-07T11:56:50;32.90;67.40
16247;DHT22;8231;50.866;7.944;2023-09-07T11:59:18;33.10;69.30
16247;DHT22;8231;50.866;7.944;2023-09-07T12:01:46;33.40;70.90
16247;DHT22;8231;50.866;7.944;2023-09-07T12:04:19;34.30;69.60
16247;DHT22;8231;50.866;7.944;2023-09-07T12:06:48;34.70;68.40
16247;DHT22;8231;50.866;7.944;2023-09-07T12:09:16;35.30;66.40
16247;DHT22;8231;50.866;7.944;2023-09-07T12:11:44;35.70;67.00
16247;DHT22;8231;50.866;7.944;2023-09-07T12:14:16;36.30;64.40
16247;DHT22;8231;50.866;7.944;2023-09-07T12:16:44;37.10;64.00
16247;DHT22;8231;50.866;7.944;2023-09-07T12:19:12;37.30;63.60
16247;DHT22;8231;50.866;7.944;2023-09-07T12:21:42;37.90;61.10
16247;DHT22;8231;50.866;7.944;2023-09-07T12:24:10;38.00;60.20
16247;DHT22;8231;50.866;7.944;2023-09-07T12:26:39;38.20;59.30
16247;DHT22;8231;50.866;7.944;2023-09-07T12:29:08;38.50;61.00
16247;DHT22;8231;50.866;7.944;2023-09-07T12:31:36;39.10;57.20
16247;DHT22;8231;50.866;7.944;2023-09-07T12:34:04;39.40;56.60
16247;DHT22;8231;50.866;7.944;2023-09-07T12:36:33;39.80;55.70
16247;DHT22;8231;50.866;7.944;2023-09-07T12:39:02;40.40;51.40
16247;DHT22;8231;50.866;7.944;2023-09-07T12:41:32;40.20;52.80
16247;DHT22;8231;50.866;7.944;2023-09-07T12:44:00;40.70;50.60
16247;DHT22;8231;50.866;7.944;2023-09-07T12:46:29;40.50;48.60
16247;DHT22;8231;50.866;7.944;2023-09-07T12:48:57;40.70;49.80
16247;DHT22;8231;50.866;7.944;2023-09-07T12:51:26;41.00;47.60
16247;DHT22;8231;50.866;7.944;2023-09-07T12:53:54;41.20;48.10
16247;DHT22;8231;50.866;7.944;2023-09-07T12:56:24;41.40;49.60
16247;DHT22;8231;50.866;7.944;2023-09-07T12:58:52;41.40;48.00
16247;DHT22;8231;50.866;7.944;2023-09-07T13:01:20;41.00;47.10
16247;DHT22;8231;50.866;7.944;2023-09-07T13:03:48;40.20;51.10
16247;DHT22;8231;50.866;7.944;2023-09-07T13:06:17;40.00;49.30
16247;DHT22;8231;50.866;7.944;2023-09-07T13:08:45;39.00;48.80
16247;DHT22;8231;50.866;7.944;2023-09-07T13:11:13;38.00;47.70
16247;DHT22;8231;50.866;7.944;2023-09-07T13:13:42;37.50;51.00
16247;DHT22;8231;50.866;7.944;2023-09-07T13:16:11;36.90;49.80
16247;DHT22;8231;50.866;7.944;2023-09-07T13:18:40;36.20;51.50
16247;DHT22;8231;50.866;7.944;2023-09-07T13:21:09;35.90;52.20
16247;DHT22;8231;50.866;7.944;2023-09-07T13:23:37;35.70;51.00
16247;DHT22;8231;50.866;7.944;2023-09-07T13:26:05;35.50;52.80
16247;DHT22;8231;50.866;7.944;2023-09-07T13:28:33;34.90;53.10
16247;DHT22;8231;50.866;7.944;2023-09-07T13:31:03;34.60;52.60
16247;DHT22;8231;50.866;7.944;2023-09-07T13:33:31;34.40;53.10
16247;DHT22;8231;50.866;7.944;2023-09-07T13:35:59;34.40;53.10
16247;DHT22;8231;50.866;7.944;2023-09-07T13:38:27;34.20;52.80
16247;DHT22;8231;50.866;7.944;2023-09-07T13:40:56;33.70;54.90
16247;DHT22;8231;50.866;7.944;2023-09-07T13:43:24;33.90;56.50
16247;DHT22;8231;50.866;7.944;2023-09-07T13:45:52;34.00;58.60
16247;DHT22;8231;50.866;7.944;2023-09-07T13:48:22;34.10;55.50
16247;DHT22;8231;50.866;7.944;2023-09-07T13:50:50;33.90;57.50
16247;DHT22;8231;50.866;7.944;2023-09-07T13:53:18;33.90;56.90
16247;DHT22;8231;50.866;7.944;2023-09-07T13:55:46;33.70;57.10
16247;DHT22;8231;50.866;7.944;2023-09-07T13:58:15;33.50;57.90
16247;DHT22;8231;50.866;7.944;2023-09-07T14:00:44;33.40;58.60
16247;DHT22;8231;50.866;7.944;2023-09-07T14:03:13;33.40;60.40
16247;DHT22;8231;50.866;7.944;2023-09-07T14:05:43;33.30;59.00
16247;DHT22;8231;50.866;7.944;2023-09-07T14:08:11;32.90;58.30
16247;DHT22;8231;50.866;7.944;2023-09-07T14:10:39;32.70;58.00
16247;DHT22;8231;50.866;7.944;2023-09-07T14:13:07;32.50;58.60
16247;DHT22;8231;50.866;7.944;2023-09-07T14:15:36;32.40;60.20
16247;DHT22;8231;50.866;7.944;2023-09-07T14:18:04;32.20;59.10
16247;DHT22;8231;50.866;7.944;2023-09-07T14:20:33;32.00;60.70
16247;DHT22;8231;50.866;7.944;2023-09-07T14:23:03;32.20;60.80
16247;DHT22;8231;50.866;7.944;2023-09-07T14:25:31;32.00;61.80
16247;DHT22;8231;50.866;7.944;2023-09-07T14:27:59;32.00;60.90
16247;DHT22;8231;50.866;7.944;2023-09-07T14:30:27;31.90;60.40
16247;DHT22;8231;50.866;7.944;2023-09-07T14:32:56;31.80;60.30
16247;DHT22;8231;50.866;7.944;2023-09-07T14:35:24;31.80;63.50
16247;DHT22;8231;50.866;7.944;2023-09-07T14:37:52;31.90;62.00
16247;DHT22;8231;50.866;7.944;2023-09-07T14:40:22;32.00;60.60
16247;DHT22;8231;50.866;7.944;2023-09-07T14:42:50;31.60;59.40
16247;DHT22;8231;50.866;7.944;2023-09-07T14:45:20;31.50;61.40
16247;DHT22;8231;50.866;7.944;2023-09-07T14:47:48;31.40;59.50
16247;DHT22;8231;50.866;7.944;2023-09-07T14:50:17;31.20;59.90
16247;DHT22;8231;50.866;7.944;2023-09-07T14:52:45;31.20;59.70
16247;DHT22;8231;50.866;7.944;2023-09-07T14:55:14;31.00;60.00
16247;DHT22;8231;50.866;7.944;2023-09-07T14:57:44;30.90;60.70
16247;DHT22;8231;50.866;7.944;2023-09-07T15:00:13;31.00;63.40
16247;DHT22;8231;50.866;7.944;2023-09-07T15:02:41;31.20;63.10
16247;DHT22;8231;50.866;7.944;2023-09-07T15:05:09;31.10;60.90
16247;DHT22;8231;50.866;7.944;2023-09-07T15:07:37;30.90;61.10
16247;DHT22;8231;50.866;7.944;2023-09-07T15:10:06;30.90;62.30
16247;DHT22;8231;50.866;7.944;2023-09-07T15:12:35;30.80;62.20
16247;DHT22;8231;50.866;7.944;2023-09-07T15:15:05;30.80;62.90
16247;DHT22;8231;50.866;7.944;2023-09-07T15:17:38;30.70;62.50
16247;DHT22;8231;50.866;7.944;2023-09-07T15:20:07;30.40;62.60
16247;DHT22;8231;50.866;7.944;2023-09-07T15:22:36;30.30;63.00
16247;DHT22;8231;50.866;7.944;2023-09-07T15:25:05;30.00;63.00
16247;DHT22;8231;50.866;7.944;2023-09-07T15:27:33;29.90;64.10
16247;DHT22;8231;50.866;7.944;2023-09-07T15:30:01;29.80;65.10
16247;DHT22;8231;50.866;7.944;2023-09-07T15:32:31;29.80;65.40
16247;DHT22;8231;50.866;7.944;2023-09-07T15:35:00;29.70;65.20
16247;DHT22;8231;50.866;7.944;2023-09-07T15:37:28;29.90;65.40
16247;DHT22;8231;50.866;7.944;2023-09-07T15:39:56;29.90;67.20
16247;DHT22;8231;50.866;7.944;2023-09-07T15:42:24;29.90;67.00
16247;DHT22;8231;50.866;7.944;2023-09-07T15:44:53;29.70;65.60
16247;DHT22;8231;50.866;7.944;2023-09-07T15:47:21;29.70;66.60
16247;DHT22;8231;50.866;7.944;2023-09-07T15:49:52;29.60;67.10
16247;DHT22;8231;50.866;7.944;2023-09-07T15:52:20;29.50;67.50
16247;DHT22;8231;50.866;7.944;2023-09-07T15:54:48;29.50;67.40
16247;DHT22;8231;50.866;7.944;2023-09-07T15:57:17;29.60;66.90